Time,TemperatureF,DewpointF,PressureIn,WindDirection,WindDirectionDegrees,WindSpeedMPH,WindSpeedGustMPH,Humidity,HourlyPrecipIn,Conditions,Clouds,dailyrainin,SoftwareType,DateUTC
2013-03-11 00:21:00,60.4,56.8,29.96,ENE,67,0.0,-999.0,88,-99.99,,,0.00,Acu-Link.com,2013-03-11 04:21:00,
2013-03-11 00:36:00,60.3,56.7,29.96,SW,225,0.0,-999.0,88,-99.99,,,0.00,Acu-Link.com,2013-03-11 04:36:00,
2013-03-11 00:52:00,60.1,56.8,29.96,East,90,0.0,-999.0,89,-99.99,,,0.00,Acu-Link.com,2013-03-11 04:52:00,
2013-03-11 01:22:00,59.4,55.8,29.95,SE,135,0.0,-999.0,88,-99.99,,,0.00,Acu-Link.com,2013-03-11 05:22:00,
2013-03-11 01:38:00,58.6,55.4,29.95,ESE,112,0.0,-999.0,89,-99.99,,,0.00,Acu-Link.com,2013-03-11 05:38:00,
2013-03-11 01:53:00,58.1,55.8,29.94,West,270,0.0,-999.0,92,-99.99,,,0.00,Acu-Link.com,2013-03-11 05:53:00,
2013-03-11 02:08:00,57.0,54.4,29.94,West,270,0.0,-999.0,91,-99.99,,,0.00,Acu-Link.com,2013-03-11 06:08:00,
2013-03-11 02:24:00,56.3,54.0,29.94,West,270,0.0,-999.0,92,-99.99,,,0.00,Acu-Link.com,2013-03-11 06:24:00,
2013-03-11 02:39:00,55.2,52.6,29.93,West,270,0.0,-999.0,91,-99.99,,,0.00,Acu-Link.com,2013-03-11 06:39:00,
2013-03-11 03:09:00,54.0,51.4,29.91,West,270,0.0,-999.0,91,-99.99,,,0.00,Acu-Link.com,2013-03-11 07:09:00,
2013-03-11 03:25:00,53.6,51.3,29.91,West,270,0.0,-999.0,92,-99.99,,,0.00,Acu-Link.com,2013-03-11 07:25:00,
2013-03-11 03:40:00,53.6,52.2,29.91,West,270,0.0,-999.0,95,-99.99,,,0.00,Acu-Link.com,2013-03-11 07:40:00,
2013-03-11 03:55:00,53.4,52.3,29.90,West,270,0.0,-999.0,96,-99.99,,,0.00,Acu-Link.com,2013-03-11 07:55:00,
2013-03-11 04:10:00,52.7,50.7,29.90,West,270,0.0,-999.0,93,-99.99,,,0.00,Acu-Link.com,2013-03-11 08:10:00,
2013-03-11 04:26:00,52.9,51.5,29.90,West,270,0.0,-999.0,95,-99.99,,,0.00,Acu-Link.com,2013-03-11 08:26:00,
2013-03-11 04:41:00,52.7,51.0,29.89,West,270,0.0,-999.0,94,-99.99,,,0.00,Acu-Link.com,2013-03-11 08:41:00,
2013-03-11 05:11:00,53.1,52.0,29.89,West,270,0.0,-999.0,96,-99.99,,,0.00,Acu-Link.com,2013-03-11 09:11:00,
2013-03-11 05:26:00,52.7,51.6,29.89,West,270,0.0,-999.0,96,-99.99,,,0.00,Acu-Link.com,2013-03-11 09:26:00,
2013-03-11 05:42:00,52.7,51.9,29.88,SSE,157,0.0,-999.0,97,-99.99,,,0.00,Acu-Link.com,2013-03-11 09:42:00,
2013-03-11 06:12:00,52.3,51.5,29.89,SW,225,0.0,-999.0,97,-99.99,,,0.00,Acu-Link.com,2013-03-11 10:12:00,
2013-03-11 06:27:00,52.0,50.9,29.88,SW,225,0.0,-999.0,96,-99.99,,,0.00,Acu-Link.com,2013-03-11 10:27:00,
2013-03-11 06:43:00,51.6,50.5,29.88,SW,225,0.0,-999.0,96,-99.99,,,0.00,Acu-Link.com,2013-03-11 10:43:00,
2013-03-11 06:58:00,51.8,51.3,29.89,SW,225,0.0,-999.0,98,-99.99,,,0.00,Acu-Link.com,2013-03-11 10:58:00,
2013-03-11 07:13:00,52.2,51.9,29.88,SSW,202,0.0,-999.0,99,-99.99,,,0.00,Acu-Link.com,2013-03-11 11:13:00,
2013-03-11 07:29:00,51.6,51.3,29.89,SSW,202,0.0,-999.0,99,-99.99,,,0.00,Acu-Link.com,2013-03-11 11:29:00,
2013-03-11 07:44:00,51.8,51.5,29.89,SSW,202,0.0,-999.0,99,-99.99,,,0.00,Acu-Link.com,2013-03-11 11:44:00,
2013-03-11 07:59:00,52.5,52.2,29.90,SSW,202,0.0,-999.0,99,-99.99,,,0.00,Acu-Link.com,2013-03-11 11:59:00,
2013-03-11 08:15:00,53.8,53.5,29.90,SSW,202,0.0,-999.0,99,-99.99,,,0.00,Acu-Link.com,2013-03-11 12:15:00,
2013-03-11 08:30:00,56.8,56.5,29.89,SSE,157,0.0,-999.0,99,-99.99,,,0.00,Acu-Link.com,2013-03-11 12:30:00,
2013-03-11 08:45:00,61.5,60.9,29.91,NNE,22,1.7,-999.0,98,-99.99,,,0.00,Acu-Link.com,2013-03-11 12:45:00,
2013-03-11 09:00:00,66.6,61.9,29.92,ESE,112,3.7,-999.0,85,-99.99,,,0.00,Acu-Link.com,2013-03-11 13:00:00,
2013-03-11 09:31:00,71.1,59.6,29.91,SE,135,4.2,-999.0,67,-99.99,,,0.00,Acu-Link.com,2013-03-11 13:31:00,
2013-03-11 09:46:00,72.1,58.3,29.91,ESE,112,6.8,-999.0,62,-99.99,,,0.00,Acu-Link.com,2013-03-11 13:46:00,
2013-03-11 10:01:00,72.7,58.5,29.91,South,180,4.7,-999.0,61,-99.99,,,0.00,Acu-Link.com,2013-03-11 14:01:00,
2013-03-11 10:17:00,73.6,57.9,29.91,SSE,157,6.8,-999.0,58,-99.99,,,0.00,Acu-Link.com,2013-03-11 14:17:00,
2013-03-11 10:47:00,75.9,57.0,29.92,SE,135,4.7,-999.0,52,-99.99,,,0.00,Acu-Link.com,2013-03-11 14:47:00,
2013-03-11 11:02:00,76.3,57.4,29.91,WSW,247,3.2,-999.0,52,-99.99,,,0.00,Acu-Link.com,2013-03-11 15:02:00,
2013-03-11 11:18:00,76.6,57.1,29.91,NNW,337,2.2,-999.0,51,-99.99,,,0.00,Acu-Link.com,2013-03-11 15:18:00,
2013-03-11 11:33:00,77.0,56.9,29.91,SE,135,6.8,-999.0,50,-99.99,,,0.00,Acu-Link.com,2013-03-11 15:33:00,
2013-03-11 11:48:00,77.2,56.5,29.91,SE,135,5.8,-999.0,49,-99.99,,,0.00,Acu-Link.com,2013-03-11 15:48:00,
2013-03-11 12:03:00,77.0,56.4,29.90,SE,135,4.2,-999.0,49,-99.99,,,0.00,Acu-Link.com,2013-03-11 16:03:00,
2013-03-11 12:18:00,77.9,56.0,29.90,SE,135,7.8,-999.0,47,-99.99,,,0.00,Acu-Link.com,2013-03-11 16:18:00,
2013-03-11 12:33:00,78.3,55.8,29.89,SE,135,6.3,-999.0,46,-99.99,,,0.00,Acu-Link.com,2013-03-11 16:33:00,
2013-03-11 12:49:00,79.3,56.7,29.89,East,90,6.3,-999.0,46,-99.99,,,0.00,Acu-Link.com,2013-03-11 16:49:00,
2013-03-11 13:04:00,79.5,57.5,29.89,SE,135,3.2,-999.0,47,-99.99,,,0.00,Acu-Link.com,2013-03-11 17:04:00,
2013-03-11 13:19:00,78.4,57.1,29.88,SE,135,6.8,-999.0,48,-99.99,,,0.00,Acu-Link.com,2013-03-11 17:19:00,
2013-03-11 13:34:00,78.4,57.6,29.88,East,90,4.2,-999.0,49,-99.99,,,0.00,Acu-Link.com,2013-03-11 17:34:00,
2013-03-11 13:50:00,77.7,57.0,29.87,SE,135,4.2,-999.0,49,-99.99,,,0.00,Acu-Link.com,2013-03-11 17:50:00,
2013-03-11 14:05:00,77.9,57.7,29.87,SE,135,7.3,-999.0,50,-99.99,,,0.00,Acu-Link.com,2013-03-11 18:05:00,
2013-03-11 14:20:00,80.1,59.2,29.86,East,90,6.8,-999.0,49,-99.99,,,0.00,Acu-Link.com,2013-03-11 18:20:00,
2013-03-11 14:35:00,76.6,58.7,29.86,SE,135,3.7,-999.0,54,-99.99,,,0.00,Acu-Link.com,2013-03-11 18:35:00,
2013-03-11 14:50:00,76.6,58.7,29.85,SSE,157,7.3,-999.0,54,-99.99,,,0.00,Acu-Link.com,2013-03-11 18:50:00,
2013-03-11 15:05:00,78.6,59.5,29.84,SSW,202,3.7,-999.0,52,-99.99,,,0.00,Acu-Link.com,2013-03-11 19:05:00,
2013-03-11 15:21:00,76.8,59.4,29.85,WSW,247,6.8,-999.0,55,-99.99,,,0.00,Acu-Link.com,2013-03-11 19:21:00,
2013-03-11 15:36:00,74.8,59.5,29.83,SE,135,6.3,-999.0,59,-99.99,,,0.00,Acu-Link.com,2013-03-11 19:36:00,
2013-03-11 16:13:00,77.0,60.6,29.82,East,90,7.3,-999.0,57,-99.99,,,0.00,Acu-Link.com,2013-03-11 20:13:00,
2013-03-11 16:28:00,77.5,61.0,29.81,SE,135,7.8,-999.0,57,-99.99,,,0.00,Acu-Link.com,2013-03-11 20:28:00,
2013-03-11 16:58:00,74.7,60.3,29.80,South,180,2.7,-999.0,61,-99.99,,,0.00,Acu-Link.com,2013-03-11 20:58:00,
2013-03-11 17:14:00,74.5,61.1,29.79,SE,135,2.7,-999.0,63,-99.99,,,0.00,Acu-Link.com,2013-03-11 21:14:00,
2013-03-11 17:29:00,73.9,60.5,29.79,ESE,112,8.9,-999.0,63,-99.99,,,0.00,Acu-Link.com,2013-03-11 21:29:00,
2013-03-11 17:44:00,73.9,60.9,29.78,SE,135,5.8,-999.0,64,-99.99,,,0.00,Acu-Link.com,2013-03-11 21:44:00,
2013-03-11 17:59:00,73.9,60.9,29.79,East,90,2.7,-999.0,64,-99.99,,,0.00,Acu-Link.com,2013-03-11 21:59:00,
2013-03-11 18:15:00,72.7,61.5,29.79,SSE,157,3.7,-999.0,68,-99.99,,,0.00,Acu-Link.com,2013-03-11 22:15:00,
2013-03-11 18:30:00,72.1,61.4,29.79,ESE,112,1.7,-999.0,69,-99.99,,,0.00,Acu-Link.com,2013-03-11 22:30:00,
2013-03-11 18:45:00,72.1,61.4,29.80,ESE,112,6.3,-999.0,69,-99.99,,,0.00,Acu-Link.com,2013-03-11 22:45:00,
2013-03-11 19:00:00,71.6,62.1,29.79,SE,135,3.7,-999.0,72,-99.99,,,0.00,Acu-Link.com,2013-03-11 23:00:00,
2013-03-11 19:15:00,70.7,62.0,29.79,SSE,157,2.7,-999.0,74,-99.99,,,0.00,Acu-Link.com,2013-03-11 23:15:00,
2013-03-11 19:31:00,70.5,62.2,29.79,East,90,5.3,-999.0,75,-99.99,,,0.00,Acu-Link.com,2013-03-11 23:31:00,
2013-03-11 20:01:00,69.8,61.9,29.79,NE,45,2.7,-999.0,76,-99.99,,,0.00,Acu-Link.com,2013-03-12 00:01:00,
2013-03-11 20:16:00,69.4,61.9,29.77,South,180,2.2,-999.0,77,-99.99,,,0.00,Acu-Link.com,2013-03-12 00:16:00,
2013-03-11 20:32:00,69.1,61.9,29.79,SE,135,5.3,-999.0,78,-99.99,,,0.00,Acu-Link.com,2013-03-12 00:32:00,
2013-03-11 20:47:00,68.7,61.6,29.78,South,180,3.7,-999.0,78,-99.99,,,0.00,Acu-Link.com,2013-03-12 00:47:00,
2013-03-11 21:02:00,68.4,61.3,29.79,NNE,22,3.7,-999.0,78,-99.99,,,0.00,Acu-Link.com,2013-03-12 01:02:00,
2013-03-11 21:17:00,68.2,61.1,29.78,SSE,157,3.7,-999.0,78,-99.99,,,0.00,Acu-Link.com,2013-03-12 01:17:00,
2013-03-11 21:33:00,68.0,60.5,29.79,SE,135,2.7,-999.0,77,-99.99,,,0.00,Acu-Link.com,2013-03-12 01:33:00,
2013-03-11 21:48:00,67.5,60.0,29.80,ESE,112,1.1,-999.0,77,-99.99,,,0.00,Acu-Link.com,2013-03-12 01:48:00,
2013-03-11 22:03:00,67.3,60.2,29.81,SW,225,2.2,-999.0,78,-99.99,,,0.00,Acu-Link.com,2013-03-12 02:03:00,
2013-03-11 22:18:00,66.7,60.0,29.82,SW,225,2.7,-999.0,79,-99.99,,,0.00,Acu-Link.com,2013-03-12 02:18:00,
2013-03-11 22:34:00,66.2,59.8,29.83,East,90,2.2,-999.0,80,-99.99,,,0.00,Acu-Link.com,2013-03-12 02:34:00,
2013-03-11 22:49:00,66.0,60.0,29.82,ESE,112,1.1,-999.0,81,-99.99,,,0.00,Acu-Link.com,2013-03-12 02:49:00,
2013-03-11 23:04:00,65.8,59.8,29.81,SSE,157,2.2,-999.0,81,-99.99,,,0.00,Acu-Link.com,2013-03-12 03:04:00,
2013-03-11 23:19:00,66.0,60.0,29.82,South,180,1.7,-999.0,81,-99.99,,,0.00,Acu-Link.com,2013-03-12 03:19:00,
2013-03-11 23:34:00,66.0,60.0,29.81,SSE,157,0.0,-999.0,81,-99.99,,,0.00,Acu-Link.com,2013-03-12 03:34:00,
2013-03-11 23:50:00,65.7,60.0,29.82,SE,135,3.2,-999.0,82,-99.99,,,0.00,Acu-Link.com,2013-03-12 03:50:00,